ADDS TAF Board (Experimental) INFO

IDs: Format: Expanded Condensed

Updated at: 1111 UTC 25 Oct 2014

KMIA - Miami Intl, FL, US

Issued at 0850 UTC 25 Oct 2014
Time1053Z25/12Z25/13Z25/14Z25/15Z25/16Z25/17Z25/18Z25/19Z25/20Z25/21Z25/22Z25/23Z26/00Z
TypeOBSPRVLPRVLPRVLPRVLPRVLPRVLPRVLPRVLPRVLPRVLPRVLPRVLPRVL
VIS10>6>6>6>6>6>6>6>6>6>6>6>6>6
CIG----------------------------
CoverFEWFEWFEWFEWFEWFEWFEWFEWFEWFEWFEWFEWFEWFEW
FltCat--VFRVFRVFRVFRVFRVFRVFRVFRVFRVFRVFRVFRVFR
WX----------------------------
WDir3303403403403403401010101010101010
WSpd5777771111111111111111
WGst----------------------------
R08/26
XWnd4777771111111111111111
HWnd-2-2-2-2-2-222222222
R09/27
XWnd4777771111111111111111
HWnd-2-2-2-2-2-222222222
R12/30
XWnd3555551010101010101010
HWnd-4-5-5-5-5-5-4-4-4-4-4-4-4-4
Raw TAF
KMIA 250850Z 2508/2606 34007KT P6SM FEW040
  FM251700 01011KT P6SM FEW035
  FM260100 VRB04KT P6SM SKC


Raw METAR
KMIA 251053Z 33005KT 10SM FEW035 21/17 A2988 RMK AO2 SLP119 T02110167

TAF Board Legend

Hazard VFR MVFR IFR LIFR
Visibility (sm) >5 3≤X≤5 1≤X<3 <1
Ceiling (100 ft) >30 10≤X≤30 5≤X<10 <5
Wind Speed (kt) <10 10≤X<20 20≤X<30 ≥30
Wind Gust (kt) <15 15≤X<25 25≤X<35 ≥35
Weather No Wx Reported VCTS,-TS,-FZRA TS,FZRA +TS,+FZRA


Page loaded:  11:11 UTC  |   04:11 AM Pacific  |   05:11 AM Mountain  |   06:11 AM Central  |   07:11 AM Eastern

 

ADVISORIES

FORECASTS

FORECASTS

OBSERVATIONS

USER TOOLS

ABOUT US